createdAt,value
2022-11-25T00:01:09.666Z,3.70
2022-11-25T00:03:36.671Z,4.10
2022-11-25T00:06:12.592Z,4.10
2022-11-25T00:08:39.749Z,4.20
2022-11-25T00:11:06.799Z,4.00
2022-11-25T00:13:33.496Z,4.10
2022-11-25T00:16:07.557Z,4.10
2022-11-25T00:18:34.238Z,4.20
2022-11-25T00:21:05.553Z,4.00
2022-11-25T00:23:33.506Z,3.90
2022-11-25T00:26:10.484Z,3.90
2022-11-25T00:28:37.503Z,4.30
2022-11-25T00:31:18.278Z,3.70
2022-11-25T00:33:45.601Z,3.40
2022-11-25T00:36:15.265Z,3.30
2022-11-25T00:38:41.954Z,5.70
2022-11-25T00:41:27.361Z,2.90
2022-11-25T00:44:12.378Z,2.80
2022-11-25T00:46:39.021Z,2.70
2022-11-25T00:49:05.784Z,2.70
2022-11-25T00:51:32.412Z,2.70
2022-11-25T00:53:59.370Z,2.70
2022-11-25T00:56:26.263Z,-0.30
2022-11-25T00:58:53.362Z,2.60
2022-11-25T01:01:20.157Z,3.10
2022-11-25T01:03:49.280Z,2.10
2022-11-25T01:06:16.028Z,5.00
2022-11-25T01:08:42.734Z,1.20
2022-11-25T01:11:11.475Z,1.70
2022-11-25T01:13:38.119Z,1.70
2022-11-25T01:16:05.552Z,1.90
2022-11-25T01:18:32.697Z,2.00
2022-11-25T01:21:06.617Z,2.40
2022-11-25T01:23:33.605Z,3.40
2022-11-25T01:26:04.337Z,2.50
2022-11-25T01:28:31.022Z,2.80
2022-11-25T01:31:04.759Z,3.80
2022-11-25T01:33:34.871Z,3.20
2022-11-25T01:36:19.745Z,2.80
2022-11-25T01:38:49.344Z,3.20
2022-11-25T01:41:16.043Z,3.10
2022-11-25T01:43:42.690Z,2.80
2022-11-25T01:46:21.811Z,3.00
2022-11-25T01:48:50.960Z,3.30
2022-11-25T01:51:21.987Z,3.10
2022-11-25T01:53:48.759Z,3.10
2022-11-25T01:56:15.631Z,3.40
2022-11-25T01:58:42.451Z,2.90
2022-11-25T02:01:09.258Z,2.80
2022-11-25T02:03:40.089Z,2.50
2022-11-25T02:06:16.860Z,2.90
2022-11-25T02:08:45.790Z,3.30
2022-11-25T02:11:13.099Z,2.70
2022-11-25T02:13:40.565Z,2.70
2022-11-25T02:16:07.353Z,4.70
2022-11-25T02:18:34.084Z,4.40
2022-11-25T02:21:00.737Z,2.80
2022-11-25T02:23:27.406Z,2.90
2022-11-25T02:25:54.589Z,3.40
2022-11-25T02:28:22.293Z,3.40
2022-11-25T02:30:49.094Z,4.90
2022-11-25T02:33:15.882Z,1.60
2022-11-25T02:35:46.528Z,0.40
2022-11-25T02:38:18.841Z,2.40
2022-11-25T02:40:55.098Z,2.50
2022-11-25T02:43:21.907Z,2.80
2022-11-25T02:45:51.477Z,1.80
2022-11-25T02:48:18.238Z,2.80
2022-11-25T02:50:44.948Z,2.40
2022-11-25T02:53:11.763Z,2.50
2022-11-25T02:55:38.599Z,-1.60
2022-11-25T02:58:05.368Z,2.30
2022-11-25T03:00:31.988Z,1.90
2022-11-25T03:02:58.756Z,2.90
2022-11-25T03:05:25.524Z,2.70
2022-11-25T03:07:52.252Z,3.80
2022-11-25T03:10:18.971Z,3.10
2022-11-25T03:12:45.755Z,3.00
2022-11-25T03:15:12.505Z,2.50
2022-11-25T03:17:39.265Z,3.00
2022-11-25T03:20:06.654Z,2.80
2022-11-25T03:22:33.570Z,3.60
2022-11-25T03:25:00.396Z,3.10
2022-11-25T03:27:30.278Z,3.40
2022-11-25T03:29:57.197Z,2.70
2022-11-25T03:32:23.811Z,1.30
2022-11-25T03:34:50.510Z,3.50
2022-11-25T03:37:17.477Z,3.60
2022-11-25T03:39:44.324Z,3.60
2022-11-25T03:42:10.995Z,3.70
2022-11-25T03:44:37.973Z,4.00
2022-11-25T03:47:04.807Z,3.60
2022-11-25T03:49:31.517Z,3.60
2022-11-25T03:51:58.458Z,3.40
2022-11-25T03:54:25.128Z,3.50
2022-11-25T03:56:51.750Z,3.50
2022-11-25T03:59:18.379Z,3.40
2022-11-25T04:01:45.068Z,3.40
2022-11-25T04:04:11.869Z,3.60
2022-11-25T04:06:39.469Z,3.20
2022-11-25T04:09:06.740Z,3.40
2022-11-25T04:11:52.253Z,3.40
2022-11-25T04:14:19.017Z,3.20
2022-11-25T04:16:45.795Z,5.00
2022-11-25T04:19:12.653Z,3.40
2022-11-25T04:21:39.411Z,3.40
2022-11-25T04:24:06.631Z,4.40
2022-11-25T04:26:33.316Z,3.70
2022-11-25T04:29:00.029Z,3.70
2022-11-25T04:31:26.734Z,3.20
2022-11-25T04:33:53.429Z,4.70
2022-11-25T04:36:20.187Z,2.80
2022-11-25T04:38:46.963Z,3.50
2022-11-25T04:41:13.788Z,4.30
2022-11-25T04:43:40.447Z,4.40
2022-11-25T04:46:14.061Z,3.90
2022-11-25T04:48:41.346Z,4.00
2022-11-25T04:51:08.026Z,4.00
2022-11-25T04:53:34.662Z,4.00
2022-11-25T04:56:01.346Z,3.90
2022-11-25T04:58:46.598Z,3.90
2022-11-25T05:01:13.457Z,4.80
2022-11-25T05:03:44.942Z,4.00
2022-11-25T05:06:14.916Z,5.40
2022-11-25T05:08:41.575Z,4.10
2022-11-25T05:11:08.235Z,4.40
2022-11-25T05:13:34.899Z,4.20
2022-11-25T05:16:01.542Z,5.30
2022-11-25T05:18:28.378Z,4.30
2022-11-25T05:20:54.992Z,4.60
2022-11-25T05:23:21.635Z,4.20
2022-11-25T05:25:48.229Z,5.50
2022-11-25T05:28:14.857Z,5.60
2022-11-25T05:30:42.476Z,4.40
2022-11-25T05:33:09.224Z,4.50
2022-11-25T05:35:35.983Z,5.70
2022-11-25T05:38:04.285Z,5.50
2022-11-25T05:40:31.689Z,4.30
2022-11-25T05:43:00.032Z,5.80
2022-11-25T05:45:26.683Z,4.30
2022-11-25T05:47:53.466Z,4.40
2022-11-25T05:50:20.242Z,4.40
2022-11-25T05:52:47.034Z,5.10
2022-11-25T05:55:13.765Z,4.40
2022-11-25T05:57:40.623Z,4.40
2022-11-25T06:00:07.593Z,2.60
2022-11-25T06:02:34.322Z,4.40
2022-11-25T06:05:01.083Z,4.20
2022-11-25T06:07:27.757Z,4.30
2022-11-25T06:09:57.617Z,4.40
2022-11-25T06:12:26.719Z,4.80
2022-11-25T06:14:53.410Z,4.40
2022-11-25T06:17:20.123Z,2.90
2022-11-25T06:19:46.806Z,4.40
2022-11-25T06:22:14.115Z,4.40
2022-11-25T06:24:40.785Z,4.40
2022-11-25T06:27:07.392Z,4.40
2022-11-25T06:29:35.879Z,4.50
2022-11-25T06:32:02.716Z,4.60
2022-11-25T06:34:29.370Z,4.60
2022-11-25T06:36:56.408Z,4.60
2022-11-25T06:39:23.071Z,4.70
2022-11-25T06:41:49.806Z,4.70
2022-11-25T06:44:16.412Z,4.60
2022-11-25T06:46:43.193Z,4.80
2022-11-25T06:49:09.900Z,4.80
2022-11-25T06:51:36.679Z,4.80
2022-11-25T06:54:03.523Z,4.90
2022-11-25T06:56:30.128Z,4.90
2022-11-25T06:58:56.917Z,5.00
2022-11-25T07:01:24.926Z,5.00
2022-11-25T07:03:52.912Z,5.10
2022-11-25T07:06:20.110Z,5.10
2022-11-25T07:08:46.916Z,5.10
2022-11-25T07:11:18.959Z,4.70
2022-11-25T07:13:46.115Z,5.10
2022-11-25T07:16:13.212Z,7.00
2022-11-25T07:18:40.084Z,4.80
2022-11-25T07:21:10.936Z,5.40
2022-11-25T07:23:37.999Z,5.70
2022-11-25T07:26:07.725Z,5.90
2022-11-25T07:28:34.663Z,6.50
2022-11-25T07:31:24.243Z,6.40
2022-11-25T07:33:53.099Z,6.60
2022-11-25T07:36:20.007Z,6.90
2022-11-25T07:38:47.071Z,6.60
2022-11-25T07:41:15.012Z,6.60
2022-11-25T07:43:44.543Z,6.70
2022-11-25T07:46:16.467Z,6.70
2022-11-25T07:48:44.092Z,6.90
2022-11-25T07:51:18.501Z,6.90
2022-11-25T07:53:46.023Z,7.10
2022-11-25T07:56:12.956Z,6.90
2022-11-25T07:58:45.577Z,6.90
2022-11-25T08:01:13.467Z,7.00
2022-11-25T08:03:41.600Z,6.90
2022-11-25T08:06:09.519Z,7.00
2022-11-25T08:08:37.134Z,7.10
2022-11-25T08:11:10.170Z,7.10
2022-11-25T08:13:36.813Z,7.30
2022-11-25T08:16:03.719Z,8.00
2022-11-25T08:18:30.643Z,7.60
2022-11-25T08:21:04.892Z,7.40
2022-11-25T08:23:32.383Z,7.40
2022-11-25T08:26:03.224Z,7.40
2022-11-25T08:28:29.936Z,7.50
2022-11-25T08:31:07.064Z,7.90
2022-11-25T08:33:34.339Z,7.90
2022-11-25T08:36:01.282Z,7.00
2022-11-25T08:38:28.513Z,7.20
2022-11-25T08:40:55.623Z,7.30
2022-11-25T08:43:27.851Z,7.50
2022-11-25T08:45:55.995Z,7.00
2022-11-25T08:48:22.675Z,6.50
2022-11-25T08:50:50.960Z,7.70
2022-11-25T08:53:17.864Z,7.60
2022-11-25T08:55:44.659Z,8.50
2022-11-25T08:58:13.100Z,7.70
2022-11-25T09:00:41.967Z,8.30
2022-11-25T09:03:09.347Z,7.80
2022-11-25T09:05:39.048Z,8.40
2022-11-25T09:08:06.353Z,7.60
2022-11-25T09:10:33.149Z,8.10
2022-11-25T09:13:00.225Z,7.90
2022-11-25T09:15:27.096Z,8.40
2022-11-25T09:18:00.609Z,7.70
2022-11-25T09:20:27.564Z,7.70
2022-11-25T09:22:54.345Z,7.70
2022-11-25T09:25:21.975Z,7.70
2022-11-25T09:27:48.684Z,7.80
2022-11-25T09:30:15.633Z,7.80
2022-11-25T09:32:42.689Z,7.90
2022-11-25T09:35:09.389Z,7.80
2022-11-25T09:37:36.188Z,7.90
2022-11-25T09:40:03.224Z,8.60
2022-11-25T09:42:48.551Z,7.80
2022-11-25T09:45:33.520Z,7.80
2022-11-25T09:48:06.251Z,7.90
2022-11-25T09:50:39.092Z,8.00
2022-11-25T09:53:21.032Z,7.90
2022-11-25T09:55:49.112Z,8.10
2022-11-25T09:58:34.525Z,7.80
2022-11-25T10:01:04.234Z,7.80
2022-11-25T10:03:43.270Z,8.00
2022-11-25T10:06:17.772Z,7.80
2022-11-25T10:08:46.414Z,7.90
2022-11-25T10:11:25.357Z,8.30
2022-11-25T10:13:58.066Z,8.00
2022-11-25T10:16:34.639Z,8.00
2022-11-25T10:19:24.065Z,8.30
2022-11-25T10:21:51.518Z,8.30
2022-11-25T10:24:18.559Z,8.40
2022-11-25T10:26:46.868Z,8.50
2022-11-25T10:29:13.620Z,8.70
2022-11-25T10:31:42.141Z,9.00
2022-11-25T10:34:29.000Z,9.50
2022-11-25T10:36:58.995Z,7.10
2022-11-25T10:39:29.236Z,9.30
2022-11-25T10:41:58.941Z,10.30
2022-11-25T10:44:25.715Z,9.00
2022-11-25T10:47:13.573Z,9.70
2022-11-25T10:50:01.046Z,10.70
2022-11-25T10:52:35.280Z,11.50
2022-11-25T10:55:11.124Z,11.50
2022-11-25T10:57:37.775Z,11.10
2022-11-25T11:00:05.348Z,10.60
2022-11-25T11:02:35.070Z,10.70
2022-11-25T11:05:03.308Z,11.10
2022-11-25T11:07:35.433Z,11.80
2022-11-25T11:10:20.832Z,11.10
2022-11-25T11:13:00.370Z,11.30
2022-11-25T11:15:27.052Z,10.30
2022-11-25T11:17:54.926Z,10.10
2022-11-25T11:20:26.034Z,10.20
2022-11-25T11:22:58.398Z,10.10
2022-11-25T11:25:27.754Z,9.70
2022-11-25T11:27:55.286Z,9.50
2022-11-25T11:30:24.025Z,9.90
2022-11-25T11:33:00.006Z,9.50
2022-11-25T11:35:29.833Z,9.80
2022-11-25T11:38:02.954Z,9.80
2022-11-25T11:40:38.251Z,9.60
2022-11-25T11:43:26.338Z,10.90
2022-11-25T11:46:02.182Z,9.60
2022-11-25T11:48:28.820Z,9.90
2022-11-25T11:51:14.078Z,9.50
2022-11-25T11:53:59.728Z,9.10
2022-11-25T11:56:36.113Z,9.60
2022-11-25T11:59:06.087Z,10.10
2022-11-25T12:02:11.295Z,9.60
2022-11-25T12:04:38.209Z,7.70
2022-11-25T12:07:08.033Z,9.60
2022-11-25T12:09:38.877Z,9.70
2022-11-25T12:12:06.911Z,10.00
2022-11-25T12:14:33.955Z,10.10
2022-11-25T12:17:01.971Z,10.10
2022-11-25T12:19:45.674Z,10.80
2022-11-25T12:22:24.952Z,12.30
2022-11-25T12:24:57.378Z,11.70
2022-11-25T12:27:44.310Z,11.40
2022-11-25T12:30:16.443Z,11.90
2022-11-25T12:33:01.849Z,12.00
2022-11-25T12:35:47.347Z,12.50
2022-11-25T12:38:32.737Z,12.30
2022-11-25T12:41:03.503Z,12.60
2022-11-25T12:43:38.513Z,13.20
2022-11-25T12:46:13.643Z,13.80
2022-11-25T12:48:42.097Z,13.50
2022-11-25T12:51:41.538Z,13.40
2022-11-25T12:54:08.687Z,14.10
2022-11-25T12:56:48.844Z,13.60
2022-11-25T12:59:18.567Z,13.80
2022-11-25T13:01:45.376Z,14.30
2022-11-25T13:04:24.616Z,15.00
2022-11-25T13:07:10.057Z,15.10
2022-11-25T13:09:36.810Z,14.70
2022-11-25T13:12:03.948Z,15.20
2022-11-25T13:15:00.785Z,15.80
2022-11-25T13:17:29.833Z,15.30
2022-11-25T13:20:15.194Z,15.00
2022-11-25T13:22:41.904Z,14.70
2022-11-25T13:25:24.569Z,14.00
2022-11-25T13:27:54.204Z,14.70
2022-11-25T13:30:33.063Z,15.00
2022-11-25T13:33:12.022Z,15.20
2022-11-25T13:35:48.481Z,15.00
2022-11-25T13:38:30.481Z,14.80
2022-11-25T13:40:58.661Z,15.00
2022-11-25T13:43:25.511Z,14.60
2022-11-25T13:45:52.522Z,14.60
2022-11-25T13:48:25.190Z,14.50
2022-11-25T13:51:10.745Z,15.10
2022-11-25T13:53:38.863Z,14.50
2022-11-25T13:56:13.713Z,13.60
2022-11-25T13:58:40.423Z,14.40
2022-11-25T14:01:24.830Z,13.90
2022-11-25T14:03:57.197Z,13.70
2022-11-25T14:06:24.041Z,12.40
2022-11-25T14:09:03.034Z,11.80
2022-11-25T14:12:08.339Z,11.70
2022-11-25T14:15:01.030Z,11.80
2022-11-25T14:17:50.603Z,11.20
2022-11-25T14:20:36.547Z,11.20
2022-11-25T14:23:09.224Z,11.00
2022-11-25T14:25:52.660Z,11.10
2022-11-25T14:28:38.077Z,11.60
2022-11-25T14:31:11.187Z,10.90
2022-11-25T14:33:56.825Z,10.60
2022-11-25T14:36:29.174Z,10.40
2022-11-25T14:39:17.901Z,10.90
2022-11-25T14:41:49.721Z,10.60
2022-11-25T14:44:22.823Z,10.30
2022-11-25T14:46:57.177Z,10.70
2022-11-25T14:49:45.191Z,10.40
2022-11-25T14:52:15.704Z,10.00
2022-11-25T14:54:43.637Z,9.80
2022-11-25T14:57:10.622Z,9.70
2022-11-25T14:59:43.687Z,9.50
2022-11-25T15:02:23.256Z,9.40
2022-11-25T15:04:49.953Z,9.30
2022-11-25T15:07:18.889Z,9.00
2022-11-25T15:09:45.633Z,9.20
2022-11-25T15:12:14.343Z,8.70
2022-11-25T15:14:42.474Z,8.80
2022-11-25T15:17:17.307Z,8.80
2022-11-25T15:19:44.016Z,8.80
2022-11-25T15:22:26.678Z,9.00
2022-11-25T15:24:56.056Z,9.00
2022-11-25T15:27:25.076Z,9.10
2022-11-25T15:29:52.314Z,9.10
2022-11-25T15:32:20.170Z,9.60
2022-11-25T15:34:47.579Z,9.10
2022-11-25T15:37:14.293Z,9.20
2022-11-25T15:39:41.107Z,8.70
2022-11-25T15:42:21.933Z,9.20
2022-11-25T15:44:51.636Z,9.30
2022-11-25T15:47:18.281Z,9.50
2022-11-25T15:49:58.489Z,9.00
2022-11-25T15:52:26.154Z,9.40
2022-11-25T15:54:54.707Z,8.80
2022-11-25T15:57:23.264Z,8.70
2022-11-25T15:59:50.017Z,8.60
2022-11-25T16:02:35.383Z,8.50
2022-11-25T16:05:14.270Z,9.20
2022-11-25T16:07:54.914Z,8.90
2022-11-25T16:10:48.494Z,8.70
2022-11-25T16:13:22.385Z,9.90
2022-11-25T16:15:51.736Z,9.20
2022-11-25T16:18:39.132Z,8.90
2022-11-25T16:21:08.395Z,9.00
2022-11-25T16:23:39.715Z,9.00
2022-11-25T16:26:13.892Z,9.30
2022-11-25T16:28:42.113Z,9.00
2022-11-25T16:31:15.800Z,9.10
2022-11-25T16:33:42.459Z,9.30
2022-11-25T16:36:09.817Z,9.10
2022-11-25T16:38:36.663Z,9.20
2022-11-25T16:41:11.578Z,8.50
2022-11-25T16:43:40.157Z,10.00
2022-11-25T16:46:07.072Z,9.20
2022-11-25T16:48:33.876Z,9.20
2022-11-25T16:51:00.698Z,8.70
2022-11-25T16:53:27.512Z,9.20
2022-11-25T16:55:54.310Z,9.20
2022-11-25T16:58:22.625Z,9.20
2022-11-25T17:00:51.259Z,9.30
2022-11-25T17:03:19.437Z,9.30
2022-11-25T17:05:47.064Z,9.30
2022-11-25T17:08:14.268Z,9.30
2022-11-25T17:10:42.063Z,9.30
2022-11-25T17:13:14.807Z,9.20
2022-11-25T17:15:41.548Z,9.10
2022-11-25T17:18:08.452Z,9.00
2022-11-25T17:20:35.197Z,8.90
2022-11-25T17:23:02.318Z,8.80
2022-11-25T17:25:35.246Z,8.80
2022-11-25T17:28:03.838Z,8.30
2022-11-25T17:30:32.607Z,8.60
2022-11-25T17:33:05.201Z,8.40
2022-11-25T17:35:31.942Z,8.80
2022-11-25T17:37:59.979Z,8.40
2022-11-25T17:40:26.693Z,8.30
2022-11-25T17:42:53.437Z,8.30
2022-11-25T17:45:20.863Z,8.40
2022-11-25T17:47:48.085Z,8.40
2022-11-25T17:50:16.661Z,8.30
2022-11-25T17:52:43.429Z,8.30
2022-11-25T17:55:10.353Z,8.70
2022-11-25T17:57:37.226Z,8.40
2022-11-25T18:00:04.946Z,8.40
2022-11-25T18:02:32.135Z,8.40
2022-11-25T18:04:58.989Z,8.50
2022-11-25T18:07:25.829Z,8.60
2022-11-25T18:09:52.817Z,8.60
2022-11-25T18:12:27.571Z,8.60
2022-11-25T18:14:55.260Z,9.30
2022-11-25T18:17:21.971Z,8.50
2022-11-25T18:19:54.470Z,8.60
2022-11-25T18:22:23.543Z,8.50
2022-11-25T18:24:50.315Z,8.50
2022-11-25T18:27:24.787Z,8.50
2022-11-25T18:29:51.798Z,8.70
2022-11-25T18:32:18.721Z,8.40
2022-11-25T18:34:45.579Z,8.50
2022-11-25T18:37:12.370Z,8.50
2022-11-25T18:39:39.479Z,7.70
2022-11-25T18:42:06.928Z,8.40
2022-11-25T18:44:37.968Z,8.40
2022-11-25T18:47:05.827Z,8.40
2022-11-25T18:49:32.647Z,8.40
2022-11-25T18:51:59.398Z,8.40
2022-11-25T18:54:26.211Z,8.40
2022-11-25T18:56:53.000Z,8.40
2022-11-25T18:59:23.318Z,8.40
2022-11-25T19:01:50.284Z,8.20
2022-11-25T19:04:17.182Z,8.30
2022-11-25T19:06:44.307Z,8.40
2022-11-25T19:09:11.694Z,9.30
2022-11-25T19:11:43.289Z,8.30
2022-11-25T19:14:24.313Z,8.30
2022-11-25T19:16:51.094Z,8.60
2022-11-25T19:19:18.021Z,8.30
2022-11-25T19:21:44.805Z,8.10
2022-11-25T19:24:16.487Z,8.00
2022-11-25T19:26:45.221Z,8.20
2022-11-25T19:29:18.421Z,7.90
2022-11-25T19:31:45.720Z,7.90
2022-11-25T19:34:25.682Z,7.80
2022-11-25T19:36:52.480Z,7.70
2022-11-25T19:39:19.419Z,7.60
2022-11-25T19:41:46.176Z,7.60
2022-11-25T19:44:12.948Z,7.50
2022-11-25T19:47:13.102Z,7.60
2022-11-25T19:49:29.203Z,7.60
2022-11-25T19:51:55.909Z,7.60
2022-11-25T19:54:22.624Z,7.60
2022-11-25T19:56:49.465Z,7.60
2022-11-25T19:59:16.147Z,7.70
2022-11-25T20:01:44.810Z,8.70
2022-11-25T20:04:18.125Z,7.90
2022-11-25T20:06:44.877Z,8.00
2022-11-25T20:09:11.821Z,8.70
2022-11-25T20:11:38.653Z,8.10
2022-11-25T20:14:05.619Z,8.10
2022-11-25T20:16:36.687Z,8.20
2022-11-25T20:19:03.929Z,8.50
2022-11-25T20:21:33.659Z,8.20
2022-11-25T20:24:00.792Z,8.10
2022-11-25T20:26:30.882Z,8.20
2022-11-25T20:28:57.808Z,8.20
2022-11-25T20:31:30.021Z,8.20
2022-11-25T20:33:57.259Z,8.10
2022-11-25T20:36:28.340Z,8.10
2022-11-25T20:38:56.104Z,8.10
2022-11-25T20:41:27.518Z,8.10
2022-11-25T20:43:55.437Z,8.10
2022-11-25T20:46:23.352Z,7.90
2022-11-25T20:49:00.430Z,8.00
2022-11-25T20:51:27.237Z,7.80
2022-11-25T20:53:56.369Z,7.40
2022-11-25T20:56:24.429Z,7.80
2022-11-25T20:58:51.481Z,7.70
2022-11-25T21:01:21.282Z,8.20
2022-11-25T21:03:49.555Z,7.60
2022-11-25T21:06:22.370Z,7.60
2022-11-25T21:08:50.536Z,7.80
2022-11-25T21:11:18.608Z,7.50
2022-11-25T21:13:45.529Z,7.60
2022-11-25T21:16:12.547Z,7.70
2022-11-25T21:18:39.535Z,7.70
2022-11-25T21:21:10.532Z,7.80
2022-11-25T21:23:37.557Z,7.80
2022-11-25T21:26:06.311Z,7.80
2022-11-25T21:28:41.269Z,7.80
2022-11-25T21:31:11.760Z,7.80
2022-11-25T21:33:38.502Z,7.80
2022-11-25T21:36:05.401Z,7.70
2022-11-25T21:38:32.315Z,7.60
2022-11-25T21:40:58.995Z,7.40
2022-11-25T21:43:28.557Z,7.30
2022-11-25T21:46:04.112Z,7.30
2022-11-25T21:48:31.439Z,7.70
2022-11-25T21:50:58.867Z,6.60
2022-11-25T21:53:25.540Z,7.10
2022-11-25T21:55:52.575Z,7.10
2022-11-25T21:58:20.660Z,7.00
2022-11-25T22:00:57.997Z,6.90
2022-11-25T22:03:25.661Z,7.60
2022-11-25T22:05:52.422Z,6.80
2022-11-25T22:08:19.217Z,6.00
2022-11-25T22:10:47.339Z,6.70
2022-11-25T22:13:21.114Z,6.60
2022-11-25T22:15:49.782Z,6.80
2022-11-25T22:18:23.431Z,6.60
2022-11-25T22:20:53.525Z,6.80
2022-11-25T22:23:20.766Z,6.60
2022-11-25T22:25:48.536Z,6.50
2022-11-25T22:28:19.256Z,6.50
2022-11-25T22:30:51.031Z,6.40
2022-11-25T22:33:18.167Z,6.50
2022-11-25T22:35:44.965Z,6.30
2022-11-25T22:38:16.380Z,6.40
2022-11-25T22:40:44.349Z,7.00
2022-11-25T22:43:19.724Z,6.10
2022-11-25T22:45:46.617Z,6.90
2022-11-25T22:48:18.977Z,7.30
2022-11-25T22:50:46.170Z,7.00
2022-11-25T22:53:14.731Z,5.90
2022-11-25T22:55:41.711Z,6.30
2022-11-25T22:58:10.412Z,6.20
2022-11-25T23:00:39.591Z,6.20
2022-11-25T23:03:07.588Z,6.20
2022-11-25T23:05:35.748Z,6.10
2022-11-25T23:08:09.551Z,6.20
2022-11-25T23:10:36.215Z,6.20
2022-11-25T23:13:03.042Z,6.60
2022-11-25T23:15:29.780Z,6.20
2022-11-25T23:17:58.042Z,6.10
2022-11-25T23:20:28.728Z,6.00
2022-11-25T23:22:55.710Z,6.00
2022-11-25T23:25:23.123Z,6.00
2022-11-25T23:27:49.949Z,6.00
2022-11-25T23:30:21.575Z,5.60
2022-11-25T23:32:52.565Z,6.20
2022-11-25T23:35:21.155Z,6.80
2022-11-25T23:37:50.154Z,5.90
2022-11-25T23:40:19.109Z,5.90
2022-11-25T23:42:45.901Z,5.80
2022-11-25T23:45:16.798Z,5.80
2022-11-25T23:47:45.040Z,5.80
2022-11-25T23:50:23.964Z,5.70
2022-11-25T23:52:52.036Z,7.00
2022-11-25T23:55:21.552Z,5.70
2022-11-25T23:57:48.528Z,5.70
